Time;durP1;ratioP1;P1;durP2;ratioP2;P2;SDS_P1;SDS_P2;PMS_P1;PMS_P2;Temp;Humidity;BMP_temperature;BMP_pressure;BME280_temperature;BME280_humidity;BME280_pressure;Samples;Min_cycle;Max_cycle;Signal;HPM_P1;HPM_P2
2022/03/02 00:03:20;;;;;;;0.20;0.10;;;9.70;99.90;;;;;;25447477;23;20195;-68
2022/03/02 00:13:26;;;;;;;0.20;0.10;;;9.60;99.90;;;;;;25447213;23;20199;-69
2022/03/02 00:23:30;;;;;;;0.20;0.00;;;9.40;99.90;;;;;;25447538;23;20193;-68
2022/03/02 00:33:36;;;;;;;0.20;0.00;;;9.40;99.90;;;;;;25446815;23;20195;-68
2022/03/02 00:43:39;;;;;;;0.20;0.03;;;9.30;99.90;;;;;;25447145;23;20195;-68
2022/03/02 00:53:45;;;;;;;0.20;0.10;;;9.40;99.90;;;;;;25446664;23;20171;-68
2022/03/02 01:03:50;;;;;;;0.20;0.10;;;9.20;99.90;;;;;;25446792;23;20192;-69
2022/03/02 01:13:55;;;;;;;0.20;0.10;;;8.90;99.90;;;;;;25445750;23;20172;-68
2022/03/02 01:23:59;;;;;;;0.20;0.00;;;8.90;99.90;;;;;;25453312;23;20266;-69
2022/03/02 01:34:04;;;;;;;0.20;0.00;;;9.10;99.90;;;;;;25453240;23;20187;-68
2022/03/02 01:44:08;;;;;;;0.20;0.00;;;9.00;99.90;;;;;;25452368;23;20193;-67
2022/03/02 01:54:13;;;;;;;0.20;0.10;;;8.80;99.90;;;;;;25451705;23;20178;-67
2022/03/02 02:04:17;;;;;;;0.20;0.00;;;8.70;99.90;;;;;;25451623;23;20288;-68
2022/03/02 02:14:22;;;;;;;0.20;0.00;;;8.60;99.90;;;;;;25426611;23;20168;-67
2022/03/02 02:24:28;;;;;;;0.20;0.10;;;8.70;99.90;;;;;;25451097;23;20191;-68
2022/03/02 02:34:32;;;;;;;0.20;0.10;;;8.50;99.90;;;;;;25449400;23;20198;-68
2022/03/02 02:44:37;;;;;;;0.20;0.00;;;8.40;99.90;;;;;;25450276;23;20198;-63
2022/03/02 02:54:42;;;;;;;0.70;0.67;;;8.50;99.90;;;;;;25449889;23;20176;-68
2022/03/02 03:04:47;;;;;;;0.20;0.00;;;8.60;99.90;;;;;;25449934;23;20200;-68
2022/03/02 03:14:51;;;;;;;0.20;0.03;;;9.00;99.90;;;;;;25449093;23;20176;-68
2022/03/02 03:24:56;;;;;;;0.20;0.00;;;9.10;99.90;;;;;;25448869;23;20187;-68
2022/03/02 03:35:00;;;;;;;0.20;0.00;;;9.30;99.90;;;;;;25448506;23;20203;-67
2022/03/02 03:45:06;;;;;;;0.20;0.03;;;9.70;99.90;;;;;;25447769;23;20312;-67
2022/03/02 03:55:11;;;;;;;0.20;0.00;;;9.70;99.90;;;;;;25447963;23;20172;-67
2022/03/02 04:05:17;;;;;;;0.20;0.10;;;9.80;99.90;;;;;;25447511;23;20203;-66
2022/03/02 04:15:22;;;;;;;0.20;0.00;;;9.90;99.90;;;;;;25421048;23;20182;-67
2022/03/02 04:25:28;;;;;;;0.20;0.00;;;10.00;99.90;;;;;;25446370;23;20187;-67
2022/03/02 04:35:32;;;;;;;0.20;0.10;;;10.10;99.90;;;;;;25446425;23;20187;-67
2022/03/02 04:45:37;;;;;;;0.20;0.00;;;10.00;99.90;;;;;;25420309;23;20199;-67
2022/03/02 04:55:42;;;;;;;0.20;0.00;;;9.70;99.90;;;;;;25452706;23;20160;-71
2022/03/02 05:05:47;;;;;;;0.20;0.00;;;9.80;99.90;;;;;;25445545;23;20203;-68
2022/03/02 05:15:51;;;;;;;0.20;0.10;;;9.90;99.90;;;;;;25449284;23;20175;-68
2022/03/02 05:25:57;;;;;;;0.20;0.00;;;9.90;99.90;;;;;;25454216;23;20195;-68
2022/03/02 05:36:00;;;;;;;0.20;0.10;;;9.90;99.90;;;;;;25428516;23;20188;-68
2022/03/02 05:46:06;;;;;;;0.20;0.00;;;9.90;99.90;;;;;;25452614;23;20191;-67
2022/03/02 05:56:09;;;;;;;0.20;0.00;;;10.20;99.90;;;;;;25451646;23;20187;-69
2022/03/02 06:06:15;;;;;;;0.20;0.00;;;10.30;99.90;;;;;;25448757;23;20214;-67
2022/03/02 06:16:19;;;;;;;0.20;0.00;;;10.30;99.90;;;;;;25449668;23;20168;-67
2022/03/02 06:26:26;;;;;;;0.20;0.10;;;10.40;99.90;;;;;;25447647;23;20191;-67
2022/03/02 06:36:30;;;;;;;0.20;0.10;;;10.40;99.90;;;;;;25446797;23;20192;-68
2022/03/02 06:46:43;;;;;;;0.20;0.10;;;10.60;99.90;;;;;;25445391;23;20203;-68
2022/03/02 06:56:49;;;;;;;0.20;0.10;;;10.70;99.90;;;;;;25439035;23;20175;-73
2022/03/02 07:06:56;;;;;;;0.20;0.00;;;11.00;99.90;;;;;;25434350;23;20214;-72
2022/03/02 07:17:01;;;;;;;0.20;0.10;;;11.10;99.90;;;;;;25437401;23;20160;-72
2022/03/02 07:27:09;;;;;;;0.20;0.10;;;11.30;99.90;;;;;;25444270;23;20199;-70
2022/03/02 07:37:13;;;;;;;0.20;0.10;;;11.30;99.90;;;;;;25443096;23;20192;-70
2022/03/02 07:47:20;;;;;;;0.20;0.10;;;11.60;99.90;;;;;;25440483;23;20201;-67
2022/03/02 07:57:24;;;;;;;0.20;0.10;;;11.90;99.90;;;;;;25413888;23;20172;-69
2022/03/02 08:07:30;;;;;;;0.20;0.10;;;12.50;99.90;;;;;;25414125;23;20282;-67
2022/03/02 08:17:34;;;;;;;0.20;0.10;;;12.60;99.90;;;;;;25439024;23;20216;-64
2022/03/02 08:27:42;;;;;;;0.20;0.00;;;12.70;99.90;;;;;;25439351;23;20194;-66
2022/03/02 08:37:45;;;;;;;0.20;0.10;;;12.40;99.90;;;;;;25439214;23;20187;-66
2022/03/02 08:47:50;;;;;;;0.20;0.10;;;12.90;99.90;;;;;;25440293;23;20192;-66
2022/03/02 08:57:55;;;;;;;0.20;0.10;;;13.00;99.90;;;;;;25438825;23;20230;-65
2022/03/02 09:08:01;;;;;;;0.20;0.10;;;13.10;99.90;;;;;;25439066;23;20203;-65
2022/03/02 09:18:06;;;;;;;0.20;0.10;;;13.00;99.90;;;;;;25441094;23;20168;-66
2022/03/02 09:28:11;;;;;;;0.20;0.10;;;13.10;99.90;;;;;;25439215;23;20202;-64
2022/03/02 09:38:18;;;;;;;0.20;0.00;;;13.20;99.90;;;;;;25441232;23;20192;-64
2022/03/02 09:48:30;;;;;;;0.20;0.07;;;13.40;99.90;;;;;;25444464;23;20534;-64
2022/03/02 09:58:39;;;;;;;0.20;0.10;;;13.30;99.90;;;;;;25443345;23;20167;-69
2022/03/02 10:08:47;;;;;;;0.20;0.10;;;13.40;99.90;;;;;;25440544;23;20601;-68
2022/03/02 10:18:56;;;;;;;0.20;0.10;;;13.60;99.90;;;;;;25417685;23;20217;-69
2022/03/02 10:29:04;;;;;;;0.20;0.00;;;13.30;99.90;;;;;;25407011;23;20167;-70
2022/03/02 10:39:09;;;;;;;0.20;0.00;;;13.70;99.90;;;;;;25430849;23;20205;-69
2022/03/02 10:49:20;;;;;;;0.20;0.00;;;14.00;99.90;;;;;;25429172;23;20179;-68
2022/03/02 10:59:26;;;;;;;0.20;0.00;;;13.70;99.90;;;;;;25430833;23;20190;-68
2022/03/02 11:09:35;;;;;;;0.20;0.00;;;13.60;99.90;;;;;;25404662;23;20206;-64
2022/03/02 11:19:44;;;;;;;0.20;0.00;;;13.90;99.90;;;;;;25430970;23;20264;-66
2022/03/02 11:29:49;;;;;;;0.20;0.10;;;14.00;99.90;;;;;;25405236;23;20206;-65
2022/03/02 11:39:53;;;;;;;0.20;0.10;;;14.30;99.90;;;;;;25428817;23;20199;-66
2022/03/02 11:49:58;;;;;;;0.20;0.00;;;14.60;99.90;;;;;;25430199;23;20176;-66
2022/03/02 12:00:09;;;;;;;0.20;0.03;;;14.60;99.90;;;;;;25430628;23;20219;-65
2022/03/02 12:10:21;;;;;;;0.20;0.10;;;14.20;99.90;;;;;;25431839;23;20197;-66
2022/03/02 12:20:26;;;;;;;0.20;0.00;;;14.10;99.90;;;;;;25428690;23;20187;-66
2022/03/02 12:30:35;;;;;;;0.20;0.00;;;14.00;99.90;;;;;;25428518;23;20230;-66
2022/03/02 12:40:41;;;;;;;0.20;0.00;;;14.20;99.90;;;;;;25427334;23;20199;-68
2022/03/02 12:50:47;;;;;;;0.20;0.10;;;14.20;99.90;;;;;;25425869;23;20188;-65
2022/03/02 13:00:51;;;;;;;0.20;0.00;;;14.90;99.90;;;;;;25426241;23;20639;-66
2022/03/02 13:10:57;;;;;;;1.17;1.13;;;15.40;99.90;;;;;;25428810;23;20195;-66
2022/03/02 13:21:22;;;;;;;0.20;0.00;;;15.20;99.90;;;;;;25433444;23;20187;-66
2022/03/02 13:31:28;;;;;;;0.20;0.00;;;15.10;99.90;;;;;;25425129;23;20283;-66
2022/03/02 13:41:47;;;;;;;0.20;0.10;;;14.70;99.90;;;;;;25421769;23;20207;-65
2022/03/02 13:51:52;;;;;;;0.20;0.10;;;14.60;99.90;;;;;;25432223;23;20168;-66
2022/03/02 14:01:56;;;;;;;0.20;0.10;;;14.40;99.90;;;;;;25432302;23;20343;-68
2022/03/02 14:24:25;;;;;;;0.20;0.00;;;14.60;99.90;;;;;;25433000;23;20246;-68
2022/03/02 14:34:45;;;;;;;0.20;0.10;;;14.80;99.90;;;;;;25430003;23;20191;-73
2022/03/02 14:45:21;;;;;;;0.20;0.00;;;14.60;99.90;;;;;;25429774;23;20191;-72
2022/03/02 14:55:31;;;;;;;0.20;0.00;;;14.70;99.90;;;;;;25410058;23;20172;-69
2022/03/02 15:05:53;;;;;;;0.20;0.00;;;14.60;99.90;;;;;;25430137;23;20183;-67
2022/03/02 15:15:58;;;;;;;0.20;0.10;;;14.80;99.90;;;;;;25410404;23;20192;-73
2022/03/02 15:26:09;;;;;;;0.20;0.10;;;17.10;99.90;;;;;;25306615;23;20192;-72
2022/03/02 15:36:14;;;;;;;0.20;0.00;;;19.50;99.90;;;;;;25305441;23;20184;-69
2022/03/02 15:46:34;;;;;;;0.20;0.00;;;16.60;99.90;;;;;;25304196;23;20211;-67
2022/03/02 15:56:39;;;;;;;0.20;0.10;;;14.90;99.90;;;;;;25304383;23;20374;-68
2022/03/02 16:06:56;;;;;;;0.20;0.10;;;14.50;99.90;;;;;;25301288;23;20188;-66
2022/03/02 16:17:01;;;;;;;0.20;0.00;;;15.50;99.90;;;;;;25333732;23;20195;-68
2022/03/02 16:27:13;;;;;;;0.20;0.00;;;14.80;99.90;;;;;;25418397;23;20283;-67
2022/03/02 16:37:20;;;;;;;0.20;0.00;;;14.30;99.90;;;;;;25418381;23;20983;-67
2022/03/02 16:47:23;;;;;;;0.20;0.10;;;13.70;99.90;;;;;;25395824;23;20187;-68
2022/03/02 16:57:29;;;;;;;0.20;0.00;;;13.90;99.90;;;;;;25423374;23;20168;-67
2022/03/02 17:07:33;;;;;;;0.20;0.00;;;14.10;99.90;;;;;;25425480;23;20187;-66
2022/03/02 17:17:39;;;;;;;0.20;0.00;;;14.10;99.90;;;;;;25369390;23;1329104;-66
2022/03/02 17:27:43;;;;;;;0.20;0.00;;;14.00;99.90;;;;;;25429007;23;20492;-68
2022/03/02 17:37:48;;;;;;;0.20;0.00;;;13.70;99.90;;;;;;25429570;23;20199;-67
2022/03/02 17:47:53;;;;;;;0.20;0.00;;;13.60;99.90;;;;;;25408987;23;20192;-69
2022/03/02 17:57:58;;;;;;;0.20;0.00;;;13.50;99.90;;;;;;25439191;23;20175;-67
2022/03/02 18:08:02;;;;;;;0.20;0.10;;;13.40;99.90;;;;;;25435174;23;20187;-66
2022/03/02 18:18:09;;;;;;;0.20;0.10;;;13.20;99.90;;;;;;25439425;23;20198;-66
2022/03/02 18:28:13;;;;;;;0.20;0.00;;;13.20;99.90;;;;;;25442586;23;20187;-68
2022/03/02 18:38:19;;;;;;;0.20;0.10;;;12.90;99.90;;;;;;25442388;23;20180;-67
2022/03/02 18:48:23;;;;;;;0.20;0.00;;;12.80;99.90;;;;;;25440838;23;20195;-67
2022/03/02 18:58:28;;;;;;;0.20;0.10;;;12.40;99.90;;;;;;25440676;23;20168;-68
2022/03/02 19:08:33;;;;;;;0.20;0.10;;;12.40;99.90;;;;;;25439768;23;20198;-67
2022/03/02 19:18:40;;;;;;;0.20;0.10;;;11.90;99.90;;;;;;25440914;23;20191;-67
2022/03/02 19:28:46;;;;;;;0.20;0.00;;;11.60;99.90;;;;;;25414322;23;20188;-66
2022/03/02 19:49:14;;;;;;;0.20;0.07;;;11.40;99.90;;;;;;25440877;23;20185;-68
2022/03/02 19:59:22;;;;;;;0.20;0.10;;;11.30;99.90;;;;;;25441295;23;20239;-66
2022/03/02 20:09:28;;;;;;;0.20;0.10;;;11.20;99.90;;;;;;25440624;23;20187;-67
2022/03/02 20:19:36;;;;;;;0.20;0.00;;;11.10;99.90;;;;;;25415948;23;20191;-67
2022/03/02 20:29:39;;;;;;;0.20;0.00;;;10.90;99.90;;;;;;25415908;23;20194;-65
2022/03/02 20:39:45;;;;;;;0.20;0.00;;;10.50;99.90;;;;;;25441199;23;20208;-71
2022/03/02 20:49:48;;;;;;;0.20;0.00;;;10.30;99.90;;;;;;25433491;23;20193;-70
2022/03/02 20:59:54;;;;;;;0.20;0.10;;;10.60;99.90;;;;;;25411390;23;20187;-68
2022/03/02 21:09:58;;;;;;;0.20;0.00;;;10.60;99.90;;;;;;25439749;23;20188;-70
2022/03/02 21:20:04;;;;;;;0.20;0.10;;;10.20;99.90;;;;;;25439475;23;20191;-69
2022/03/02 21:30:09;;;;;;;0.20;0.20;;;10.70;99.90;;;;;;25441075;23;20263;-69
2022/03/02 21:40:15;;;;;;;0.20;0.10;;;10.90;99.90;;;;;;25423452;23;20186;-68
2022/03/02 21:50:22;;;;;;;0.20;0.10;;;10.70;99.90;;;;;;25449803;23;20191;-68
2022/03/02 22:00:28;;;;;;;0.20;0.00;;;10.90;99.90;;;;;;25451191;23;20175;-68
2022/03/02 22:10:32;;;;;;;0.20;0.00;;;11.00;99.90;;;;;;25449440;23;20191;-67
2022/03/02 22:20:37;;;;;;;0.20;0.10;;;11.20;99.90;;;;;;25447256;23;20192;-68
2022/03/02 22:30:41;;;;;;;0.20;0.10;;;11.40;99.90;;;;;;25448984;23;20184;-68
2022/03/02 22:40:47;;;;;;;0.20;0.00;;;11.70;99.90;;;;;;25423109;23;20176;-67
2022/03/02 22:50:52;;;;;;;0.20;0.10;;;11.90;99.90;;;;;;25446605;23;20163;-68
2022/03/02 23:01:16;;;;;;;0.20;0.10;;;12.20;99.90;;;;;;25447891;23;20175;-66
2022/03/02 23:21:43;;;;;;;0.20;0.00;;;12.30;99.90;;;;;;25420451;23;20204;-67
2022/03/02 23:31:49;;;;;;;0.20;0.10;;;12.30;99.90;;;;;;25444723;23;20203;-65
2022/03/02 23:41:58;;;;;;;0.20;0.10;;;12.50;99.90;;;;;;25445454;23;20266;-66
2022/03/02 23:52:01;;;;;;;0.20;0.10;;;12.30;99.90;;;;;;25445465;23;20202;-69
